createdAt,value
2017-07-31T00:01:23.769Z,4.40
2017-07-31T00:03:51.316Z,4.37
2017-07-31T00:06:18.849Z,4.50
2017-07-31T00:08:46.413Z,4.50
2017-07-31T00:11:13.987Z,5.00
2017-07-31T00:13:41.906Z,4.30
2017-07-31T00:16:09.500Z,4.60
2017-07-31T00:18:37.067Z,4.47
2017-07-31T00:21:04.634Z,4.70
2017-07-31T00:23:32.174Z,4.53
2017-07-31T00:26:00.811Z,5.60
2017-07-31T00:28:28.340Z,5.20
2017-07-31T00:30:55.872Z,4.80
2017-07-31T00:33:24.184Z,4.83
2017-07-31T00:35:51.728Z,5.10
2017-07-31T00:38:19.550Z,4.90
2017-07-31T00:40:47.118Z,5.30
2017-07-31T00:43:14.657Z,5.10
2017-07-31T00:45:42.222Z,5.03
2017-07-31T00:48:09.754Z,5.00
2017-07-31T00:50:37.657Z,4.93
2017-07-31T00:53:05.200Z,5.50
2017-07-31T00:55:32.760Z,5.90
2017-07-31T00:58:00.335Z,5.17
2017-07-31T01:00:27.871Z,4.70
2017-07-31T01:02:55.715Z,4.87
2017-07-31T01:05:23.254Z,5.20
2017-07-31T01:07:50.811Z,5.80
2017-07-31T01:10:19.149Z,5.43
2017-07-31T01:12:46.662Z,5.30
2017-07-31T01:15:14.582Z,5.10
2017-07-31T01:17:42.102Z,5.57
2017-07-31T01:20:09.629Z,5.20
2017-07-31T01:22:37.992Z,5.07
2017-07-31T01:25:05.542Z,5.67
2017-07-31T01:27:33.361Z,5.40
2017-07-31T01:30:00.904Z,5.23
2017-07-31T01:32:29.200Z,6.00
2017-07-31T01:34:56.763Z,5.73
2017-07-31T01:37:24.310Z,5.27
2017-07-31T01:39:52.895Z,5.30
2017-07-31T01:42:21.166Z,6.23
2017-07-31T01:44:48.694Z,5.67
2017-07-31T01:47:16.233Z,6.03
2017-07-31T01:49:43.774Z,6.80
2017-07-31T01:52:11.618Z,6.33
2017-07-31T01:54:39.934Z,6.40
2017-07-31T01:57:07.471Z,6.77
2017-07-31T01:59:35.046Z,6.70
2017-07-31T02:02:02.568Z,6.77
2017-07-31T02:04:30.393Z,7.00
2017-07-31T02:06:57.945Z,7.50
2017-07-31T02:09:25.495Z,7.50
2017-07-31T02:11:53.067Z,10.40
2017-07-31T02:14:20.592Z,8.13
2017-07-31T02:16:49.232Z,7.17
2017-07-31T02:19:17.569Z,7.90
2017-07-31T02:21:45.119Z,7.93
2017-07-31T02:24:13.451Z,7.27
2017-07-31T02:26:40.989Z,7.77
2017-07-31T02:29:08.897Z,6.83
2017-07-31T02:31:36.448Z,7.10
2017-07-31T02:34:04.012Z,6.80
2017-07-31T02:36:31.607Z,6.40
2017-07-31T02:38:59.934Z,7.57
2017-07-31T02:41:27.738Z,7.47
2017-07-31T02:43:56.078Z,6.90
2017-07-31T02:46:23.644Z,7.70
2017-07-31T02:48:51.213Z,6.30
2017-07-31T02:51:18.774Z,6.57
2017-07-31T02:53:46.648Z,5.57
2017-07-31T02:56:14.190Z,5.50
2017-07-31T02:58:41.725Z,4.50
2017-07-31T03:01:09.315Z,4.43
2017-07-31T03:03:36.828Z,3.47
2017-07-31T03:06:04.755Z,3.93
2017-07-31T03:08:32.274Z,4.50
2017-07-31T03:11:00.630Z,3.70
2017-07-31T03:13:28.956Z,4.00
2017-07-31T03:15:56.490Z,4.00
2017-07-31T03:18:24.358Z,4.00
2017-07-31T03:20:51.878Z,4.20
2017-07-31T03:23:19.413Z,4.37
2017-07-31T03:25:46.964Z,3.93
2017-07-31T03:28:14.496Z,5.20
2017-07-31T03:30:42.413Z,4.60
2017-07-31T03:33:09.949Z,4.50
2017-07-31T03:35:37.482Z,4.60
2017-07-31T03:38:05.045Z,4.80
2017-07-31T03:40:32.568Z,9.27
2017-07-31T03:43:00.442Z,3.97
2017-07-31T03:45:27.992Z,5.87
2017-07-31T03:47:55.513Z,4.40
2017-07-31T03:50:23.111Z,4.30
2017-07-31T03:52:50.638Z,4.07
2017-07-31T03:55:18.487Z,3.93
2017-07-31T03:57:46.019Z,4.10
2017-07-31T04:00:13.568Z,5.27
2017-07-31T04:02:41.146Z,4.17
2017-07-31T04:05:08.687Z,5.73
2017-07-31T04:07:37.291Z,4.53
2017-07-31T04:10:04.826Z,6.67
2017-07-31T04:12:33.218Z,3.70
2017-07-31T04:15:00.785Z,4.23
2017-07-31T04:17:28.366Z,4.60
2017-07-31T04:19:56.271Z,4.73
2017-07-31T04:22:23.808Z,4.73
2017-07-31T04:24:51.372Z,4.80
2017-07-31T04:27:18.940Z,4.10
2017-07-31T04:29:46.479Z,4.20
2017-07-31T04:32:14.383Z,4.07
2017-07-31T04:34:41.902Z,3.90
2017-07-31T04:37:09.450Z,3.97
2017-07-31T04:39:37.006Z,4.43
2017-07-31T04:42:04.515Z,4.17
2017-07-31T04:44:32.355Z,4.70
2017-07-31T04:46:59.870Z,4.40
2017-07-31T04:49:27.427Z,3.30
2017-07-31T04:51:55.001Z,4.30
2017-07-31T04:54:23.994Z,4.23
2017-07-31T04:56:52.605Z,3.60
2017-07-31T04:59:20.130Z,3.60
2017-07-31T05:01:48.442Z,5.17
2017-07-31T05:04:16.022Z,4.50
2017-07-31T05:06:43.544Z,5.87
2017-07-31T05:09:12.294Z,4.70
2017-07-31T05:11:39.829Z,4.93
2017-07-31T05:14:07.337Z,4.90
2017-07-31T05:16:36.332Z,5.00
2017-07-31T05:19:06.574Z,4.80
2017-07-31T05:21:35.173Z,4.13
2017-07-31T05:24:02.703Z,5.23
2017-07-31T05:26:31.008Z,4.90
2017-07-31T05:28:58.611Z,5.07
2017-07-31T05:31:26.150Z,4.70
2017-07-31T05:33:54.058Z,4.07
2017-07-31T05:36:21.587Z,4.20
2017-07-31T05:38:49.143Z,4.10
2017-07-31T05:41:16.703Z,3.50
2017-07-31T05:43:44.252Z,3.60
2017-07-31T05:46:12.202Z,4.00
2017-07-31T05:48:40.800Z,2.93
2017-07-31T05:51:08.487Z,3.57
2017-07-31T05:53:36.242Z,2.70
2017-07-31T05:56:03.779Z,2.60
2017-07-31T05:58:31.733Z,3.00
2017-07-31T06:00:59.288Z,3.10
2017-07-31T06:03:26.831Z,2.40
2017-07-31T06:05:54.368Z,2.60
2017-07-31T06:08:21.917Z,2.70
2017-07-31T06:10:49.800Z,2.20
2017-07-31T06:13:17.331Z,2.40
2017-07-31T06:15:44.914Z,2.10
2017-07-31T06:18:12.452Z,2.07
2017-07-31T06:20:39.993Z,2.90
2017-07-31T06:23:08.627Z,3.10
2017-07-31T06:25:36.172Z,2.43
2017-07-31T06:28:03.725Z,2.20
2017-07-31T06:30:31.310Z,2.03
2017-07-31T06:32:58.848Z,2.13
2017-07-31T06:35:26.743Z,1.87
2017-07-31T06:37:54.272Z,1.83
2017-07-31T06:40:21.825Z,1.80
2017-07-31T06:42:50.269Z,2.00
2017-07-31T06:45:17.811Z,1.80
2017-07-31T06:47:45.377Z,2.07
2017-07-31T06:50:12.912Z,2.00
2017-07-31T06:52:40.799Z,1.80
2017-07-31T06:55:08.363Z,1.80
2017-07-31T06:57:35.922Z,2.10
2017-07-31T07:00:03.457Z,1.90
2017-07-31T07:02:30.988Z,2.40
2017-07-31T07:04:58.927Z,2.33
2017-07-31T07:07:26.499Z,1.90
2017-07-31T07:09:54.031Z,1.60
2017-07-31T07:12:21.635Z,2.00
2017-07-31T07:14:49.928Z,2.10
2017-07-31T07:17:17.830Z,3.00
2017-07-31T07:19:45.372Z,2.53
2017-07-31T07:22:12.900Z,2.00
2017-07-31T07:24:40.477Z,2.60
2017-07-31T07:27:08.012Z,2.13
2017-07-31T07:29:36.841Z,2.17
2017-07-31T07:32:04.381Z,2.80
2017-07-31T07:34:31.941Z,2.13
2017-07-31T07:36:59.490Z,2.37
2017-07-31T07:39:27.028Z,2.60
2017-07-31T07:41:54.874Z,3.40
2017-07-31T07:44:22.414Z,2.40
2017-07-31T07:46:49.968Z,2.40
2017-07-31T07:49:17.511Z,2.50
2017-07-31T07:51:45.060Z,2.30
2017-07-31T07:54:13.658Z,2.97
2017-07-31T07:56:41.185Z,2.63
2017-07-31T07:59:09.494Z,2.57
2017-07-31T08:01:37.081Z,2.70
2017-07-31T08:04:04.609Z,2.90
2017-07-31T08:06:32.500Z,2.83
2017-07-31T08:09:00.055Z,2.93
2017-07-31T08:11:27.592Z,2.80
2017-07-31T08:13:55.149Z,3.40
2017-07-31T08:16:22.685Z,3.00
2017-07-31T08:18:50.638Z,3.07
2017-07-31T08:21:18.153Z,4.00
2017-07-31T08:23:45.676Z,2.80
2017-07-31T08:26:13.239Z,2.40
2017-07-31T08:28:40.780Z,2.60
2017-07-31T08:31:08.643Z,2.83
2017-07-31T08:33:36.279Z,2.50
2017-07-31T08:36:03.833Z,3.10
2017-07-31T08:38:31.412Z,2.70
2017-07-31T08:40:58.939Z,3.20
2017-07-31T08:43:27.670Z,3.07
2017-07-31T08:45:55.215Z,2.83
2017-07-31T08:48:22.740Z,3.47
2017-07-31T08:50:50.336Z,2.60
2017-07-31T08:53:17.893Z,3.07
2017-07-31T08:55:45.782Z,2.70
2017-07-31T08:58:13.309Z,2.60
2017-07-31T09:00:40.865Z,3.83
2017-07-31T09:03:08.462Z,2.97
2017-07-31T09:05:36.020Z,2.90
2017-07-31T09:08:03.866Z,3.43
2017-07-31T09:10:31.425Z,3.37
2017-07-31T09:12:58.951Z,2.80
2017-07-31T09:15:26.534Z,3.03
2017-07-31T09:17:54.089Z,3.13
2017-07-31T09:20:21.934Z,2.80
2017-07-31T09:22:49.483Z,2.90
2017-07-31T09:25:17.020Z,3.63
2017-07-31T09:27:44.601Z,2.90
2017-07-31T09:30:12.132Z,2.87
2017-07-31T09:32:40.031Z,5.00
2017-07-31T09:35:07.595Z,3.20
2017-07-31T09:37:35.908Z,2.50
2017-07-31T09:40:03.485Z,2.70
2017-07-31T09:42:31.676Z,3.23
2017-07-31T09:44:59.580Z,2.33
2017-07-31T09:47:27.098Z,2.60
2017-07-31T09:49:54.660Z,2.53
2017-07-31T09:52:22.275Z,2.97
2017-07-31T09:54:50.729Z,2.70
2017-07-31T09:57:18.555Z,2.70
2017-07-31T09:59:46.505Z,2.77
2017-07-31T10:02:14.792Z,3.30
2017-07-31T10:04:42.357Z,2.60
2017-07-31T10:07:09.894Z,3.27
2017-07-31T10:09:37.828Z,2.90
2017-07-31T10:12:05.392Z,2.93
2017-07-31T10:14:32.940Z,3.17
2017-07-31T10:17:00.501Z,2.67
2017-07-31T10:19:28.020Z,2.40
2017-07-31T10:21:55.842Z,2.47
2017-07-31T10:24:23.374Z,2.83
2017-07-31T10:26:50.901Z,2.33
2017-07-31T10:29:19.249Z,2.90
2017-07-31T10:31:46.813Z,2.77
2017-07-31T10:34:14.664Z,2.77
2017-07-31T10:36:42.186Z,2.80
2017-07-31T10:39:09.749Z,2.80
2017-07-31T10:41:37.305Z,2.70
2017-07-31T10:44:04.878Z,2.70
2017-07-31T10:46:32.785Z,2.60
2017-07-31T10:49:00.307Z,3.00
2017-07-31T10:51:27.917Z,3.17
2017-07-31T10:53:55.468Z,2.77
2017-07-31T10:56:22.991Z,2.90
2017-07-31T10:58:50.876Z,3.00
2017-07-31T11:01:18.414Z,3.10
2017-07-31T11:03:45.989Z,3.17
2017-07-31T11:06:13.535Z,3.13
2017-07-31T11:08:41.076Z,3.20
2017-07-31T11:11:08.914Z,2.80
2017-07-31T11:13:36.527Z,2.93
2017-07-31T11:16:04.078Z,2.70
2017-07-31T11:18:31.653Z,2.97
2017-07-31T11:20:59.420Z,2.90
2017-07-31T11:23:27.282Z,3.10
2017-07-31T11:25:54.807Z,3.10
2017-07-31T11:28:23.097Z,2.80
2017-07-31T11:30:50.651Z,2.70
2017-07-31T11:33:18.192Z,2.73
2017-07-31T11:35:46.127Z,2.70
2017-07-31T11:38:13.673Z,9.40
2017-07-31T11:40:41.239Z,13.00
2017-07-31T11:43:08.832Z,16.53
2017-07-31T11:45:36.363Z,14.33
2017-07-31T11:48:04.326Z,6.77
2017-07-31T11:50:31.853Z,5.60
2017-07-31T11:52:59.396Z,8.60
2017-07-31T11:55:26.955Z,6.93
2017-07-31T11:57:55.249Z,9.97
2017-07-31T12:00:23.166Z,9.60
2017-07-31T12:02:50.724Z,9.90
2017-07-31T12:05:18.269Z,10.63
2017-07-31T12:07:45.832Z,13.90
2017-07-31T12:10:13.370Z,8.27
2017-07-31T12:12:41.413Z,9.40
2017-07-31T12:15:08.942Z,7.87
2017-07-31T12:17:36.459Z,9.63
2017-07-31T12:20:04.026Z,4.60
2017-07-31T12:22:31.571Z,4.73
2017-07-31T12:24:59.626Z,4.00
2017-07-31T12:27:27.165Z,3.90
2017-07-31T12:29:54.708Z,3.20
2017-07-31T12:32:22.297Z,3.40
2017-07-31T12:34:49.828Z,3.33
2017-07-31T12:37:17.655Z,3.13
2017-07-31T12:39:45.960Z,2.63
2017-07-31T12:42:13.478Z,2.80
2017-07-31T12:44:41.814Z,2.83
2017-07-31T12:47:09.813Z,2.97
2017-07-31T12:49:37.628Z,3.27
2017-07-31T12:52:05.164Z,2.53
2017-07-31T12:54:33.456Z,2.97
2017-07-31T12:57:01.027Z,2.60
2017-07-31T12:59:28.566Z,2.93
2017-07-31T13:01:57.192Z,2.63
2017-07-31T13:04:25.224Z,2.73
2017-07-31T13:06:52.772Z,2.60
2017-07-31T13:09:20.345Z,2.30
2017-07-31T13:11:48.656Z,2.50
2017-07-31T13:14:16.511Z,2.73
2017-07-31T13:16:44.038Z,2.73
2017-07-31T13:19:12.362Z,2.70
2017-07-31T13:21:40.453Z,3.00
2017-07-31T13:24:08.010Z,3.40
2017-07-31T13:26:35.977Z,2.83
2017-07-31T13:29:03.498Z,3.07
2017-07-31T13:31:31.003Z,2.50
2017-07-31T13:33:58.569Z,2.90
2017-07-31T13:36:26.109Z,2.37
2017-07-31T13:38:53.982Z,2.60
2017-07-31T13:41:21.535Z,3.57
2017-07-31T13:43:49.089Z,3.37
2017-07-31T13:46:16.666Z,2.80
2017-07-31T13:48:44.204Z,3.70
2017-07-31T13:51:12.092Z,3.20
2017-07-31T13:53:39.629Z,3.07
2017-07-31T13:56:07.884Z,2.90
2017-07-31T13:58:35.468Z,3.10
2017-07-31T14:01:03.010Z,3.13
2017-07-31T14:03:30.845Z,3.03
2017-07-31T14:05:58.370Z,3.13
2017-07-31T14:08:25.933Z,2.93
2017-07-31T14:10:53.506Z,4.40
2017-07-31T14:13:21.074Z,3.27
2017-07-31T14:15:48.937Z,4.33
2017-07-31T14:18:16.452Z,3.20
2017-07-31T14:20:44.012Z,3.20
2017-07-31T14:23:11.569Z,3.30
2017-07-31T14:25:39.262Z,3.60
2017-07-31T14:28:07.206Z,3.10
2017-07-31T14:30:34.730Z,4.30
2017-07-31T14:33:02.268Z,3.50
2017-07-31T14:35:29.820Z,3.13
2017-07-31T14:37:57.340Z,3.00
2017-07-31T14:40:25.212Z,2.93
2017-07-31T14:42:52.759Z,3.30
2017-07-31T14:45:20.336Z,3.47
2017-07-31T14:47:47.903Z,3.37
2017-07-31T14:50:15.523Z,3.27
2017-07-31T14:52:43.393Z,3.00
2017-07-31T14:55:11.627Z,4.00
2017-07-31T14:57:39.158Z,3.47
2017-07-31T15:00:06.732Z,3.03
2017-07-31T15:02:34.249Z,3.10
2017-07-31T15:05:02.099Z,3.87
2017-07-31T15:07:29.630Z,3.37
2017-07-31T15:09:57.177Z,3.17
2017-07-31T15:12:24.759Z,3.00
2017-07-31T15:14:52.301Z,3.47
2017-07-31T15:17:20.200Z,3.23
2017-07-31T15:19:47.729Z,3.40
2017-07-31T15:22:15.293Z,3.43
2017-07-31T15:24:42.856Z,3.50
2017-07-31T15:27:10.406Z,3.60
2017-07-31T15:29:38.274Z,3.03
2017-07-31T15:32:05.844Z,3.67
2017-07-31T15:34:35.283Z,3.10
2017-07-31T15:37:02.866Z,2.73
2017-07-31T15:39:30.424Z,3.40
2017-07-31T15:41:58.268Z,3.43
2017-07-31T15:44:26.541Z,3.27
2017-07-31T15:46:54.079Z,3.87
2017-07-31T15:49:21.683Z,3.60
2017-07-31T15:51:49.237Z,2.93
2017-07-31T15:54:17.104Z,3.03
2017-07-31T15:56:44.681Z,3.47
2017-07-31T15:59:12.257Z,3.20
2017-07-31T16:01:39.824Z,2.90
2017-07-31T16:04:07.421Z,2.87
2017-07-31T16:06:35.306Z,3.30
2017-07-31T16:09:02.840Z,3.13
2017-07-31T16:11:30.395Z,3.10
2017-07-31T16:13:57.946Z,3.20
2017-07-31T16:16:25.499Z,2.90
2017-07-31T16:18:53.426Z,3.17
2017-07-31T16:21:20.971Z,3.40
2017-07-31T16:23:48.498Z,3.80
2017-07-31T16:26:16.082Z,3.40
2017-07-31T16:28:43.607Z,3.47
2017-07-31T16:31:11.559Z,3.83
2017-07-31T16:33:39.884Z,3.90
2017-07-31T16:36:07.470Z,4.27
2017-07-31T16:38:38.012Z,4.17
2017-07-31T16:41:05.650Z,5.23
2017-07-31T16:43:45.309Z,4.47
2017-07-31T16:46:22.565Z,4.07
2017-07-31T16:49:10.891Z,4.23
2017-07-31T16:51:38.495Z,4.37
2017-07-31T16:54:06.365Z,5.03
2017-07-31T16:56:33.912Z,3.83
2017-07-31T16:59:01.441Z,3.83
2017-07-31T17:01:29.004Z,3.90
2017-07-31T17:03:56.546Z,4.57
2017-07-31T17:06:24.584Z,4.20
2017-07-31T17:08:52.141Z,6.40
2017-07-31T17:11:19.747Z,5.53
2017-07-31T17:13:48.312Z,6.10
2017-07-31T17:16:19.271Z,4.83
2017-07-31T17:18:47.126Z,4.43
2017-07-31T17:21:14.676Z,5.13
2017-07-31T17:23:42.972Z,3.90
2017-07-31T17:26:10.659Z,4.10
2017-07-31T17:28:38.209Z,3.70
2017-07-31T17:31:06.130Z,3.70
2017-07-31T17:33:33.706Z,4.17
2017-07-31T17:36:01.267Z,4.13
2017-07-31T17:38:28.815Z,4.20
2017-07-31T17:40:56.355Z,4.37
2017-07-31T17:43:24.193Z,5.70
2017-07-31T17:45:51.769Z,5.33
2017-07-31T17:48:19.312Z,4.20
2017-07-31T17:50:46.947Z,4.03
2017-07-31T17:53:14.493Z,4.90
2017-07-31T17:55:42.310Z,5.47
2017-07-31T17:58:09.867Z,5.73
2017-07-31T18:00:37.562Z,5.40
2017-07-31T18:03:05.181Z,6.50
2017-07-31T18:05:32.779Z,5.07
2017-07-31T18:08:00.643Z,6.17
2017-07-31T18:10:28.187Z,6.30
2017-07-31T18:12:55.738Z,7.10
2017-07-31T18:15:23.327Z,7.47
2017-07-31T18:17:50.897Z,8.00
2017-07-31T18:20:19.255Z,7.00
2017-07-31T18:22:49.827Z,6.10
2017-07-31T18:25:17.548Z,5.90
2017-07-31T18:27:45.141Z,6.80
2017-07-31T18:30:12.690Z,6.00
2017-07-31T18:32:40.753Z,6.40
2017-07-31T18:35:08.323Z,6.80
2017-07-31T18:37:35.922Z,5.30
2017-07-31T18:40:04.545Z,6.57
2017-07-31T18:42:32.235Z,6.30
2017-07-31T18:45:00.177Z,8.13
2017-07-31T18:47:27.934Z,7.03
2017-07-31T18:49:55.679Z,6.77
2017-07-31T18:52:27.280Z,6.63
2017-07-31T18:54:55.099Z,7.30
2017-07-31T18:57:23.187Z,7.60
2017-07-31T18:59:50.870Z,7.70
2017-07-31T19:02:18.499Z,8.70
2017-07-31T19:04:46.107Z,9.60
2017-07-31T19:07:13.713Z,12.40
2017-07-31T19:09:41.587Z,7.73
2017-07-31T19:12:09.155Z,6.20
2017-07-31T19:14:36.702Z,7.10
2017-07-31T19:17:05.060Z,6.47
2017-07-31T19:19:32.591Z,6.53
2017-07-31T19:22:00.467Z,6.67
2017-07-31T19:24:28.109Z,5.87
2017-07-31T19:26:55.686Z,6.03
2017-07-31T19:29:23.294Z,7.80
2017-07-31T19:31:50.889Z,7.13
2017-07-31T19:34:19.519Z,7.27
2017-07-31T19:36:47.087Z,6.07
2017-07-31T19:39:14.665Z,11.57
2017-07-31T19:41:43.008Z,6.90
2017-07-31T19:44:10.570Z,6.90
2017-07-31T19:46:38.452Z,6.20
2017-07-31T19:49:06.014Z,7.53
2017-07-31T19:51:33.588Z,6.57
2017-07-31T19:54:01.161Z,6.60
2017-07-31T19:56:28.935Z,6.00
2017-07-31T19:58:56.875Z,6.60
2017-07-31T20:01:24.427Z,6.83
2017-07-31T20:03:51.991Z,6.50
2017-07-31T20:06:19.679Z,7.00
2017-07-31T20:08:47.244Z,7.00
2017-07-31T20:11:15.111Z,6.70
2017-07-31T20:13:42.743Z,6.40
2017-07-31T20:16:10.334Z,8.17
2017-07-31T20:18:38.704Z,7.40
2017-07-31T20:21:06.300Z,7.37
2017-07-31T20:23:34.278Z,8.67
2017-07-31T20:26:01.829Z,8.60
2017-07-31T20:28:29.389Z,10.37
2017-07-31T20:30:56.985Z,9.13
2017-07-31T20:33:24.612Z,8.20
2017-07-31T20:35:52.555Z,8.67
2017-07-31T20:38:20.873Z,10.00
2017-07-31T20:40:48.451Z,11.53
2017-07-31T20:43:16.048Z,6.57
2017-07-31T20:45:43.608Z,8.03
2017-07-31T20:48:11.507Z,6.47
2017-07-31T20:50:39.057Z,6.87
2017-07-31T20:53:07.396Z,6.63
2017-07-31T20:55:34.981Z,9.17
2017-07-31T20:58:02.544Z,9.47
2017-07-31T21:00:31.992Z,7.77
2017-07-31T21:03:00.273Z,6.70
2017-07-31T21:05:27.816Z,7.40
2017-07-31T21:07:55.395Z,7.13
2017-07-31T21:10:22.919Z,5.73
2017-07-31T21:12:50.862Z,8.50
2017-07-31T21:15:18.431Z,7.90
2017-07-31T21:17:45.994Z,6.57
2017-07-31T21:20:13.581Z,6.00
2017-07-31T21:22:41.145Z,6.37
2017-07-31T21:25:09.072Z,7.60
2017-07-31T21:27:36.617Z,13.67
2017-07-31T21:30:04.167Z,8.60
2017-07-31T21:32:31.750Z,6.87
2017-07-31T21:34:59.322Z,6.60
2017-07-31T21:37:27.177Z,8.30
2017-07-31T21:39:54.705Z,7.03
2017-07-31T21:42:22.262Z,7.80
2017-07-31T21:44:49.828Z,6.97
2017-07-31T21:47:17.362Z,7.90
2017-07-31T21:49:45.176Z,7.63
2017-07-31T21:52:12.704Z,6.10
2017-07-31T21:54:40.230Z,7.33
2017-07-31T21:57:07.777Z,7.43
2017-07-31T21:59:35.321Z,7.23
2017-07-31T22:02:03.189Z,6.87
2017-07-31T22:04:30.736Z,8.20
2017-07-31T22:06:58.263Z,8.13
2017-07-31T22:09:25.859Z,9.13
2017-07-31T22:11:53.395Z,6.93
2017-07-31T22:14:21.321Z,7.80
2017-07-31T22:16:54.411Z,8.30
2017-07-31T22:19:22.233Z,8.17
2017-07-31T22:21:55.402Z,8.27
2017-07-31T22:24:23.335Z,6.80
2017-07-31T22:26:50.855Z,7.40
2017-07-31T22:29:18.435Z,6.53
2017-07-31T22:31:45.983Z,6.33
2017-07-31T22:34:13.522Z,6.30
2017-07-31T22:36:41.425Z,6.53
2017-07-31T22:39:08.950Z,6.00
2017-07-31T22:41:36.473Z,6.37
2017-07-31T22:44:04.019Z,6.63
2017-07-31T22:46:31.600Z,6.37
2017-07-31T22:48:59.447Z,6.60
2017-07-31T22:51:26.977Z,6.50
2017-07-31T22:53:54.532Z,6.50
2017-07-31T22:56:22.082Z,7.00
2017-07-31T22:58:49.630Z,6.77
2017-07-31T23:01:17.559Z,7.47
2017-07-31T23:03:45.088Z,5.87
2017-07-31T23:06:12.620Z,6.50
2017-07-31T23:08:40.193Z,6.50
2017-07-31T23:11:07.737Z,7.13
2017-07-31T23:13:35.562Z,6.37
2017-07-31T23:16:03.128Z,5.93
2017-07-31T23:18:30.671Z,7.23
2017-07-31T23:20:58.288Z,6.43
2017-07-31T23:23:25.810Z,6.57
2017-07-31T23:25:53.666Z,6.40
2017-07-31T23:28:21.188Z,7.20
2017-07-31T23:30:48.721Z,6.50
2017-07-31T23:33:16.290Z,7.00
2017-07-31T23:35:44.584Z,6.77
2017-07-31T23:38:12.475Z,6.40
2017-07-31T23:40:40.009Z,7.30
2017-07-31T23:43:07.515Z,5.90
2017-07-31T23:45:35.097Z,6.13
2017-07-31T23:48:02.659Z,7.23
2017-07-31T23:50:31.315Z,6.13
2017-07-31T23:52:58.865Z,6.23
2017-07-31T23:55:26.392Z,6.30
2017-07-31T23:57:53.946Z,6.70
